sensor_id;sensor_type;location;lat;lon;timestamp;pressure;altitude;pressure_sealevel;temperature
21336;BMP180;10826;52.536;13.432;2022-12-18T00:03:52;102668.00;;;5.20
21336;BMP180;10826;52.536;13.432;2022-12-18T00:06:19;102676.00;;;5.20
21336;BMP180;10826;52.536;13.432;2022-12-18T00:08:46;102691.00;;;5.20
21336;BMP180;10826;52.536;13.432;2022-12-18T00:11:19;102694.00;;;5.20
21336;BMP180;10826;52.536;13.432;2022-12-18T00:13:45;102695.00;;;5.20
21336;BMP180;10826;52.536;13.432;2022-12-18T00:16:18;102693.00;;;5.20
21336;BMP180;10826;52.536;13.432;2022-12-18T00:18:49;102692.00;;;5.20
21336;BMP180;10826;52.536;13.432;2022-12-18T00:21:18;102688.00;;;5.10
21336;BMP180;10826;52.536;13.432;2022-12-18T00:23:47;102680.00;;;5.20
21336;BMP180;10826;52.536;13.432;2022-12-18T00:26:20;102696.00;;;5.10
21336;BMP180;10826;52.536;13.432;2022-12-18T00:28:48;102695.00;;;5.00
21336;BMP180;10826;52.536;13.432;2022-12-18T00:31:18;102683.00;;;5.00
21336;BMP180;10826;52.536;13.432;2022-12-18T00:33:45;102681.00;;;4.90
21336;BMP180;10826;52.536;13.432;2022-12-18T00:36:18;102697.00;;;4.80
21336;BMP180;10826;52.536;13.432;2022-12-18T00:38:45;102688.00;;;4.70
21336;BMP180;10826;52.536;13.432;2022-12-18T00:41:13;102685.00;;;4.60
21336;BMP180;10826;52.536;13.432;2022-12-18T00:43:59;102687.00;;;4.50
21336;BMP180;10826;52.536;13.432;2022-12-18T00:46:25;102691.00;;;4.40
21336;BMP180;10826;52.536;13.432;2022-12-18T00:48:51;102668.00;;;4.30
21336;BMP180;10826;52.536;13.432;2022-12-18T00:51:17;102693.00;;;4.20
21336;BMP180;10826;52.536;13.432;2022-12-18T00:53:42;102675.00;;;4.10
21336;BMP180;10826;52.536;13.432;2022-12-18T00:56:08;102649.00;;;4.10
21336;BMP180;10826;52.536;13.432;2022-12-18T00:58:35;102684.00;;;4.10
21336;BMP180;10826;52.536;13.432;2022-12-18T01:01:04;102684.00;;;4.10
21336;BMP180;10826;52.536;13.432;2022-12-18T01:03:30;102647.00;;;4.10
21336;BMP180;10826;52.536;13.432;2022-12-18T01:05:56;102684.00;;;4.20
21336;BMP180;10826;52.536;13.432;2022-12-18T01:08:22;102668.00;;;4.20
21336;BMP180;10826;52.536;13.432;2022-12-18T01:10:48;102704.00;;;4.20
21336;BMP180;10826;52.536;13.432;2022-12-18T01:13:14;102697.00;;;4.20
21336;BMP180;10826;52.536;13.432;2022-12-18T01:15:40;102653.00;;;4.20
21336;BMP180;10826;52.536;13.432;2022-12-18T01:18:07;102699.00;;;4.20
21336;BMP180;10826;52.536;13.432;2022-12-18T01:20:33;102706.00;;;4.20
21336;BMP180;10826;52.536;13.432;2022-12-18T01:22:58;102706.00;;;4.20
21336;BMP180;10826;52.536;13.432;2022-12-18T01:25:24;102684.00;;;4.20
21336;BMP180;10826;52.536;13.432;2022-12-18T01:27:50;102707.00;;;4.20
21336;BMP180;10826;52.536;13.432;2022-12-18T01:30:16;102710.00;;;4.10
21336;BMP180;10826;52.536;13.432;2022-12-18T01:32:43;102717.00;;;4.10
21336;BMP180;10826;52.536;13.432;2022-12-18T01:35:09;102708.00;;;4.20
21336;BMP180;10826;52.536;13.432;2022-12-18T01:37:35;102709.00;;;4.20
21336;BMP180;10826;52.536;13.432;2022-12-18T01:40:01;102696.00;;;4.20
21336;BMP180;10826;52.536;13.432;2022-12-18T01:42:26;102714.00;;;4.10
21336;BMP180;10826;52.536;13.432;2022-12-18T01:47:50;102719.00;;;4.20
21336;BMP180;10826;52.536;13.432;2022-12-18T01:50:31;102730.00;;;4.20
21336;BMP180;10826;52.536;13.432;2022-12-18T01:53:15;102721.00;;;4.20
21336;BMP180;10826;52.536;13.432;2022-12-18T01:55:51;102717.00;;;4.20
21336;BMP180;10826;52.536;13.432;2022-12-18T01:58:23;102717.00;;;4.20
21336;BMP180;10826;52.536;13.432;2022-12-18T02:00:50;102722.00;;;4.10
21336;BMP180;10826;52.536;13.432;2022-12-18T02:03:16;102716.00;;;4.10
21336;BMP180;10826;52.536;13.432;2022-12-18T02:06:16;102722.00;;;4.10
21336;BMP180;10826;52.536;13.432;2022-12-18T02:09:04;102718.00;;;4.10
21336;BMP180;10826;52.536;13.432;2022-12-18T02:15:26;102733.00;;;4.10
21336;BMP180;10826;52.536;13.432;2022-12-18T02:17:55;102733.00;;;4.00
21336;BMP180;10826;52.536;13.432;2022-12-18T02:20:36;102716.00;;;4.00
21336;BMP180;10826;52.536;13.432;2022-12-18T02:23:24;102730.00;;;4.10
21336;BMP180;10826;52.536;13.432;2022-12-18T02:26:13;102730.00;;;4.10
21336;BMP180;10826;52.536;13.432;2022-12-18T02:29:12;102715.00;;;4.10
21336;BMP180;10826;52.536;13.432;2022-12-18T02:31:48;102729.00;;;4.10
21336;BMP180;10826;52.536;13.432;2022-12-18T02:34:18;102731.00;;;4.00
21336;BMP180;10826;52.536;13.432;2022-12-18T02:36:47;102746.00;;;4.00
21336;BMP180;10826;52.536;13.432;2022-12-18T02:39:15;102737.00;;;4.00
21336;BMP180;10826;52.536;13.432;2022-12-18T02:41:42;102756.00;;;4.00
21336;BMP180;10826;52.536;13.432;2022-12-18T02:44:12;102736.00;;;4.00
21336;BMP180;10826;52.536;13.432;2022-12-18T02:46:46;102754.00;;;4.10
21336;BMP180;10826;52.536;13.432;2022-12-18T02:49:39;102753.00;;;4.10
21336;BMP180;10826;52.536;13.432;2022-12-18T02:53:00;102766.00;;;4.10
21336;BMP180;10826;52.536;13.432;2022-12-18T02:56:07;102758.00;;;4.10
21336;BMP180;10826;52.536;13.432;2022-12-18T02:59:04;102750.00;;;4.10
21336;BMP180;10826;52.536;13.432;2022-12-18T03:07:07;102723.00;;;4.10
21336;BMP180;10826;52.536;13.432;2022-12-18T03:09:43;102749.00;;;4.10
21336;BMP180;10826;52.536;13.432;2022-12-18T03:12:35;102750.00;;;4.10
21336;BMP180;10826;52.536;13.432;2022-12-18T03:15:11;102749.00;;;4.10
21336;BMP180;10826;52.536;13.432;2022-12-18T03:17:41;102747.00;;;4.10
21336;BMP180;10826;52.536;13.432;2022-12-18T03:20:14;102744.00;;;4.10
21336;BMP180;10826;52.536;13.432;2022-12-18T03:22:46;102756.00;;;4.10
21336;BMP180;10826;52.536;13.432;2022-12-18T03:25:14;102753.00;;;4.10
21336;BMP180;10826;52.536;13.432;2022-12-18T03:27:48;102734.00;;;4.10
21336;BMP180;10826;52.536;13.432;2022-12-18T03:30:15;102760.00;;;4.10
21336;BMP180;10826;52.536;13.432;2022-12-18T03:35:33;102754.00;;;4.10
21336;BMP180;10826;52.536;13.432;2022-12-18T03:38:00;102774.00;;;4.00
21336;BMP180;10826;52.536;13.432;2022-12-18T03:40:59;102748.00;;;4.10
21336;BMP180;10826;52.536;13.432;2022-12-18T03:47:01;102754.00;;;4.00
21336;BMP180;10826;52.536;13.432;2022-12-18T03:49:43;102752.00;;;3.90
21336;BMP180;10826;52.536;13.432;2022-12-18T03:52:36;102752.00;;;3.90
21336;BMP180;10826;52.536;13.432;2022-12-18T03:55:05;102764.00;;;3.90
21336;BMP180;10826;52.536;13.432;2022-12-18T03:57:33;102749.00;;;3.90
21336;BMP180;10826;52.536;13.432;2022-12-18T04:00:09;102727.00;;;3.90
21336;BMP180;10826;52.536;13.432;2022-12-18T04:02:41;102765.00;;;3.90
21336;BMP180;10826;52.536;13.432;2022-12-18T04:05:10;102763.00;;;3.80
21336;BMP180;10826;52.536;13.432;2022-12-18T04:07:38;102745.00;;;3.80
21336;BMP180;10826;52.536;13.432;2022-12-18T04:10:08;102746.00;;;3.80
21336;BMP180;10826;52.536;13.432;2022-12-18T04:12:38;102758.00;;;3.80
21336;BMP180;10826;52.536;13.432;2022-12-18T04:15:05;102761.00;;;3.70
21336;BMP180;10826;52.536;13.432;2022-12-18T04:17:31;102773.00;;;3.70
21336;BMP180;10826;52.536;13.432;2022-12-18T04:19:56;102746.00;;;3.70
21336;BMP180;10826;52.536;13.432;2022-12-18T04:22:22;102756.00;;;3.70
21336;BMP180;10826;52.536;13.432;2022-12-18T04:24:48;102770.00;;;3.70
21336;BMP180;10826;52.536;13.432;2022-12-18T04:27:14;102765.00;;;3.70
21336;BMP180;10826;52.536;13.432;2022-12-18T04:29:39;102773.00;;;3.70
21336;BMP180;10826;52.536;13.432;2022-12-18T04:32:05;102763.00;;;3.60
21336;BMP180;10826;52.536;13.432;2022-12-18T04:34:31;102764.00;;;3.60
21336;BMP180;10826;52.536;13.432;2022-12-18T04:36:57;102779.00;;;3.70
21336;BMP180;10826;52.536;13.432;2022-12-18T04:39:23;102781.00;;;3.60
21336;BMP180;10826;52.536;13.432;2022-12-18T04:41:48;102789.00;;;3.60
21336;BMP180;10826;52.536;13.432;2022-12-18T04:44:14;102791.00;;;3.60
21336;BMP180;10826;52.536;13.432;2022-12-18T04:46:40;102794.00;;;3.60
21336;BMP180;10826;52.536;13.432;2022-12-18T04:49:06;102785.00;;;3.60
21336;BMP180;10826;52.536;13.432;2022-12-18T04:51:31;102782.00;;;3.60
21336;BMP180;10826;52.536;13.432;2022-12-18T04:53:57;102778.00;;;3.60
21336;BMP180;10826;52.536;13.432;2022-12-18T04:56:23;102769.00;;;3.50
21336;BMP180;10826;52.536;13.432;2022-12-18T04:58:49;102784.00;;;3.50
21336;BMP180;10826;52.536;13.432;2022-12-18T05:01:17;102776.00;;;3.60
21336;BMP180;10826;52.536;13.432;2022-12-18T05:03:43;102773.00;;;3.50
21336;BMP180;10826;52.536;13.432;2022-12-18T05:06:10;102773.00;;;3.50
21336;BMP180;10826;52.536;13.432;2022-12-18T05:08:36;102799.00;;;3.50
21336;BMP180;10826;52.536;13.432;2022-12-18T05:11:06;102801.00;;;3.50
21336;BMP180;10826;52.536;13.432;2022-12-18T05:13:33;102801.00;;;3.40
21336;BMP180;10826;52.536;13.432;2022-12-18T05:15:59;102801.00;;;3.40
21336;BMP180;10826;52.536;13.432;2022-12-18T05:18:26;102804.00;;;3.40
21336;BMP180;10826;52.536;13.432;2022-12-18T05:20:53;102812.00;;;3.40
21336;BMP180;10826;52.536;13.432;2022-12-18T05:23:21;102819.00;;;3.10
21336;BMP180;10826;52.536;13.432;2022-12-18T05:25:55;102809.00;;;3.40
21336;BMP180;10826;52.536;13.432;2022-12-18T05:28:24;102824.00;;;3.50
21336;BMP180;10826;52.536;13.432;2022-12-18T05:30:53;102832.00;;;3.50
21336;BMP180;10826;52.536;13.432;2022-12-18T05:33:20;102834.00;;;3.50
21336;BMP180;10826;52.536;13.432;2022-12-18T05:35:59;102826.00;;;3.50
21336;BMP180;10826;52.536;13.432;2022-12-18T05:38:29;102825.00;;;3.50
21336;BMP180;10826;52.536;13.432;2022-12-18T05:40:56;102823.00;;;3.50
21336;BMP180;10826;52.536;13.432;2022-12-18T05:43:23;102832.00;;;3.50
21336;BMP180;10826;52.536;13.432;2022-12-18T05:45:50;102816.00;;;3.60
21336;BMP180;10826;52.536;13.432;2022-12-18T05:48:17;102833.00;;;3.60
21336;BMP180;10826;52.536;13.432;2022-12-18T05:50:46;102832.00;;;3.60
21336;BMP180;10826;52.536;13.432;2022-12-18T05:53:15;102841.00;;;3.70
21336;BMP180;10826;52.536;13.432;2022-12-18T05:55:42;102829.00;;;3.70
21336;BMP180;10826;52.536;13.432;2022-12-18T05:58:11;102821.00;;;3.70
21336;BMP180;10826;52.536;13.432;2022-12-18T06:00:43;102838.00;;;3.70
21336;BMP180;10826;52.536;13.432;2022-12-18T06:03:11;102834.00;;;3.50
21336;BMP180;10826;52.536;13.432;2022-12-18T06:05:40;102849.00;;;3.70
21336;BMP180;10826;52.536;13.432;2022-12-18T06:08:07;102849.00;;;3.70
21336;BMP180;10826;52.536;13.432;2022-12-18T06:10:33;102844.00;;;3.60
21336;BMP180;10826;52.536;13.432;2022-12-18T06:13:00;102855.00;;;3.60
21336;BMP180;10826;52.536;13.432;2022-12-18T06:15:29;102848.00;;;3.70
21336;BMP180;10826;52.536;13.432;2022-12-18T06:17:55;102846.00;;;3.70
21336;BMP180;10826;52.536;13.432;2022-12-18T06:20:21;102773.00;;;3.70
21336;BMP180;10826;52.536;13.432;2022-12-18T06:22:47;102812.00;;;3.70
21336;BMP180;10826;52.536;13.432;2022-12-18T06:25:13;102849.00;;;3.60
21336;BMP180;10826;52.536;13.432;2022-12-18T06:27:40;102837.00;;;3.70
21336;BMP180;10826;52.536;13.432;2022-12-18T06:30:06;102878.00;;;3.70
21336;BMP180;10826;52.536;13.432;2022-12-18T06:32:35;102782.00;;;3.70
21336;BMP180;10826;52.536;13.432;2022-12-18T06:35:01;102873.00;;;3.70
21336;BMP180;10826;52.536;13.432;2022-12-18T06:37:26;102875.00;;;3.70
21336;BMP180;10826;52.536;13.432;2022-12-18T06:39:56;102864.00;;;3.70
21336;BMP180;10826;52.536;13.432;2022-12-18T06:42:24;102883.00;;;3.70
21336;BMP180;10826;52.536;13.432;2022-12-18T06:44:50;102884.00;;;3.70
21336;BMP180;10826;52.536;13.432;2022-12-18T06:47:17;102883.00;;;3.70
21336;BMP180;10826;52.536;13.432;2022-12-18T06:49:43;102874.00;;;3.70
21336;BMP180;10826;52.536;13.432;2022-12-18T06:52:09;102886.00;;;3.70
21336;BMP180;10826;52.536;13.432;2022-12-18T06:54:35;102878.00;;;3.70
21336;BMP180;10826;52.536;13.432;2022-12-18T06:57:06;102871.00;;;3.70
21336;BMP180;10826;52.536;13.432;2022-12-18T06:59:33;102912.00;;;3.80
21336;BMP180;10826;52.536;13.432;2022-12-18T07:01:58;102917.00;;;3.80
21336;BMP180;10826;52.536;13.432;2022-12-18T07:04:30;102911.00;;;3.80
21336;BMP180;10826;52.536;13.432;2022-12-18T07:07:00;102898.00;;;3.70
21336;BMP180;10826;52.536;13.432;2022-12-18T07:09:26;102873.00;;;3.70
21336;BMP180;10826;52.536;13.432;2022-12-18T07:11:52;102882.00;;;3.70
21336;BMP180;10826;52.536;13.432;2022-12-18T07:14:18;102896.00;;;3.70
21336;BMP180;10826;52.536;13.432;2022-12-18T07:16:44;102911.00;;;3.70
21336;BMP180;10826;52.536;13.432;2022-12-18T07:19:09;102912.00;;;3.70
21336;BMP180;10826;52.536;13.432;2022-12-18T07:21:35;102905.00;;;3.70
21336;BMP180;10826;52.536;13.432;2022-12-18T07:24:01;102910.00;;;3.70
21336;BMP180;10826;52.536;13.432;2022-12-18T07:26:27;102909.00;;;3.70
21336;BMP180;10826;52.536;13.432;2022-12-18T07:28:56;102912.00;;;3.70
21336;BMP180;10826;52.536;13.432;2022-12-18T07:31:24;102891.00;;;3.60
21336;BMP180;10826;52.536;13.432;2022-12-18T07:33:51;102900.00;;;3.60
21336;BMP180;10826;52.536;13.432;2022-12-18T07:36:18;102898.00;;;3.70
21336;BMP180;10826;52.536;13.432;2022-12-18T07:38:47;102910.00;;;3.70
21336;BMP180;10826;52.536;13.432;2022-12-18T07:41:14;102916.00;;;3.70
21336;BMP180;10826;52.536;13.432;2022-12-18T07:43:41;102906.00;;;3.70
21336;BMP180;10826;52.536;13.432;2022-12-18T07:46:09;102903.00;;;3.70
21336;BMP180;10826;52.536;13.432;2022-12-18T07:48:35;102912.00;;;3.70
21336;BMP180;10826;52.536;13.432;2022-12-18T07:51:03;102917.00;;;3.70
21336;BMP180;10826;52.536;13.432;2022-12-18T07:53:30;102924.00;;;3.80
21336;BMP180;10826;52.536;13.432;2022-12-18T07:55:58;102900.00;;;3.80
21336;BMP180;10826;52.536;13.432;2022-12-18T07:58:25;102882.00;;;3.80
21336;BMP180;10826;52.536;13.432;2022-12-18T08:00:51;102904.00;;;3.80
21336;BMP180;10826;52.536;13.432;2022-12-18T08:03:18;102906.00;;;3.80
21336;BMP180;10826;52.536;13.432;2022-12-18T08:05:44;102831.00;;;3.90
21336;BMP180;10826;52.536;13.432;2022-12-18T08:08:10;102888.00;;;3.90
21336;BMP180;10826;52.536;13.432;2022-12-18T08:10:37;102916.00;;;3.90
21336;BMP180;10826;52.536;13.432;2022-12-18T08:13:03;102911.00;;;3.90
21336;BMP180;10826;52.536;13.432;2022-12-18T08:15:29;102921.00;;;4.00
21336;BMP180;10826;52.536;13.432;2022-12-18T08:17:58;102905.00;;;4.00
21336;BMP180;10826;52.536;13.432;2022-12-18T08:20:24;102911.00;;;4.00
21336;BMP180;10826;52.536;13.432;2022-12-18T08:22:50;102911.00;;;4.00
21336;BMP180;10826;52.536;13.432;2022-12-18T08:25:15;102923.00;;;4.00
21336;BMP180;10826;52.536;13.432;2022-12-18T08:27:41;102926.00;;;4.00
21336;BMP180;10826;52.536;13.432;2022-12-18T08:30:08;102933.00;;;4.10
21336;BMP180;10826;52.536;13.432;2022-12-18T08:32:34;102928.00;;;4.10
21336;BMP180;10826;52.536;13.432;2022-12-18T08:35:00;102931.00;;;4.00
21336;BMP180;10826;52.536;13.432;2022-12-18T08:37:26;102930.00;;;4.10
21336;BMP180;10826;52.536;13.432;2022-12-18T08:39:52;102928.00;;;4.10
21336;BMP180;10826;52.536;13.432;2022-12-18T08:42:18;102949.00;;;4.10
21336;BMP180;10826;52.536;13.432;2022-12-18T08:45:03;102943.00;;;4.00
21336;BMP180;10826;52.536;13.432;2022-12-18T08:47:29;102940.00;;;4.10
21336;BMP180;10826;52.536;13.432;2022-12-18T08:49:55;102954.00;;;4.10
21336;BMP180;10826;52.536;13.432;2022-12-18T08:52:21;102949.00;;;4.10
21336;BMP180;10826;52.536;13.432;2022-12-18T08:54:47;102902.00;;;4.10
21336;BMP180;10826;52.536;13.432;2022-12-18T08:57:13;102947.00;;;4.10
21336;BMP180;10826;52.536;13.432;2022-12-18T08:59:39;102950.00;;;4.20
21336;BMP180;10826;52.536;13.432;2022-12-18T09:02:05;102951.00;;;4.30
21336;BMP180;10826;52.536;13.432;2022-12-18T09:04:30;102964.00;;;4.30
21336;BMP180;10826;52.536;13.432;2022-12-18T09:06:56;102956.00;;;4.30
21336;BMP180;10826;52.536;13.432;2022-12-18T09:09:22;102952.00;;;4.30
21336;BMP180;10826;52.536;13.432;2022-12-18T09:11:49;102962.00;;;4.30
21336;BMP180;10826;52.536;13.432;2022-12-18T09:14:15;102930.00;;;4.40
21336;BMP180;10826;52.536;13.432;2022-12-18T09:16:41;102963.00;;;4.50
21336;BMP180;10826;52.536;13.432;2022-12-18T09:19:07;102985.00;;;4.40
21336;BMP180;10826;52.536;13.432;2022-12-18T09:21:35;102968.00;;;4.50
21336;BMP180;10826;52.536;13.432;2022-12-18T09:24:05;102969.00;;;4.50
21336;BMP180;10826;52.536;13.432;2022-12-18T09:26:31;102973.00;;;4.50
21336;BMP180;10826;52.536;13.432;2022-12-18T09:28:57;102972.00;;;4.50
21336;BMP180;10826;52.536;13.432;2022-12-18T09:31:24;102968.00;;;4.50
21336;BMP180;10826;52.536;13.432;2022-12-18T09:33:50;102974.00;;;4.60
21336;BMP180;10826;52.536;13.432;2022-12-18T09:36:18;102959.00;;;4.70
21336;BMP180;10826;52.536;13.432;2022-12-18T09:38:44;102969.00;;;4.70
21336;BMP180;10826;52.536;13.432;2022-12-18T09:41:57;102950.00;;;4.70
21336;BMP180;10826;52.536;13.432;2022-12-18T09:44:32;102961.00;;;4.80
21336;BMP180;10826;52.536;13.432;2022-12-18T09:47:18;102924.00;;;4.80
21336;BMP180;10826;52.536;13.432;2022-12-18T09:49:50;102955.00;;;4.90
21336;BMP180;10826;52.536;13.432;2022-12-18T09:52:27;102951.00;;;4.90
21336;BMP180;10826;52.536;13.432;2022-12-18T09:55:11;102946.00;;;5.00
21336;BMP180;10826;52.536;13.432;2022-12-18T09:57:47;102943.00;;;5.00
21336;BMP180;10826;52.536;13.432;2022-12-18T10:00:18;102928.00;;;5.10
21336;BMP180;10826;52.536;13.432;2022-12-18T10:02:46;102925.00;;;5.10
21336;BMP180;10826;52.536;13.432;2022-12-18T10:08:24;102862.00;;;5.10
21336;BMP180;10826;52.536;13.432;2022-12-18T10:10:57;102898.00;;;5.10
21336;BMP180;10826;52.536;13.432;2022-12-18T10:16:27;102889.00;;;5.10
21336;BMP180;10826;52.536;13.432;2022-12-18T10:19:34;102914.00;;;5.20
21336;BMP180;10826;52.536;13.432;2022-12-18T10:25:27;102913.00;;;5.20
21336;BMP180;10826;52.536;13.432;2022-12-18T10:28:12;102913.00;;;5.30
21336;BMP180;10826;52.536;13.432;2022-12-18T10:30:40;102887.00;;;5.40
21336;BMP180;10826;52.536;13.432;2022-12-18T10:33:11;102906.00;;;5.50
21336;BMP180;10826;52.536;13.432;2022-12-18T10:35:41;102901.00;;;5.50
21336;BMP180;10826;52.536;13.432;2022-12-18T10:40:58;102882.00;;;5.60
21336;BMP180;10826;52.536;13.432;2022-12-18T10:43:33;102889.00;;;5.60
21336;BMP180;10826;52.536;13.432;2022-12-18T10:46:16;102880.00;;;5.70
21336;BMP180;10826;52.536;13.432;2022-12-18T10:48:57;102870.00;;;5.70
21336;BMP180;10826;52.536;13.432;2022-12-18T10:51:37;102861.00;;;5.70
21336;BMP180;10826;52.536;13.432;2022-12-18T10:54:19;102865.00;;;5.70
21336;BMP180;10826;52.536;13.432;2022-12-18T10:56:46;102868.00;;;5.70
21336;BMP180;10826;52.536;13.432;2022-12-18T10:59:15;102867.00;;;5.80
21336;BMP180;10826;52.536;13.432;2022-12-18T11:01:57;102851.00;;;5.70
21336;BMP180;10826;52.536;13.432;2022-12-18T11:04:31;102860.00;;;5.80
21336;BMP180;10826;52.536;13.432;2022-12-18T11:07:04;102861.00;;;5.80
21336;BMP180;10826;52.536;13.432;2022-12-18T11:09:39;102859.00;;;5.80
21336;BMP180;10826;52.536;13.432;2022-12-18T11:12:20;102849.00;;;5.80
21336;BMP180;10826;52.536;13.432;2022-12-18T11:14:53;102824.00;;;5.80
21336;BMP180;10826;52.536;13.432;2022-12-18T11:17:32;102859.00;;;5.90
21336;BMP180;10826;52.536;13.432;2022-12-18T11:20:49;102860.00;;;5.90
21336;BMP180;10826;52.536;13.432;2022-12-18T11:23:11;102849.00;;;5.90
21336;BMP180;10826;52.536;13.432;2022-12-18T11:25:38;102824.00;;;6.00
21336;BMP180;10826;52.536;13.432;2022-12-18T11:28:39;102856.00;;;6.00
21336;BMP180;10826;52.536;13.432;2022-12-18T11:31:16;102855.00;;;6.00
21336;BMP180;10826;52.536;13.432;2022-12-18T11:34:11;102855.00;;;6.00
21336;BMP180;10826;52.536;13.432;2022-12-18T11:36:44;102815.00;;;6.00
21336;BMP180;10826;52.536;13.432;2022-12-18T11:39:37;102868.00;;;6.00
21336;BMP180;10826;52.536;13.432;2022-12-18T11:47:49;102859.00;;;6.10
21336;BMP180;10826;52.536;13.432;2022-12-18T11:50:26;102878.00;;;6.10
21336;BMP180;10826;52.536;13.432;2022-12-18T11:52:54;102865.00;;;6.10
21336;BMP180;10826;52.536;13.432;2022-12-18T11:55:52;102878.00;;;6.10
21336;BMP180;10826;52.536;13.432;2022-12-18T11:58:47;102898.00;;;6.10
21336;BMP180;10826;52.536;13.432;2022-12-18T12:01:48;102884.00;;;6.10
21336;BMP180;10826;52.536;13.432;2022-12-18T12:16:24;102908.00;;;6.00
21336;BMP180;10826;52.536;13.432;2022-12-18T12:19:34;102898.00;;;6.00
21336;BMP180;10826;52.536;13.432;2022-12-18T12:22:28;102888.00;;;5.90
21336;BMP180;10826;52.536;13.432;2022-12-18T12:25:44;102890.00;;;5.90
21336;BMP180;10826;52.536;13.432;2022-12-18T12:34:45;102905.00;;;5.90
21336;BMP180;10826;52.536;13.432;2022-12-18T12:37:39;102917.00;;;5.90
21336;BMP180;10826;52.536;13.432;2022-12-18T12:40:12;102907.00;;;5.90
21336;BMP180;10826;52.536;13.432;2022-12-18T12:45:55;102909.00;;;5.90
21336;BMP180;10826;52.536;13.432;2022-12-18T12:48:50;102905.00;;;5.90
21336;BMP180;10826;52.536;13.432;2022-12-18T12:51:23;102918.00;;;5.90
21336;BMP180;10826;52.536;13.432;2022-12-18T12:53:52;102905.00;;;5.90
21336;BMP180;10826;52.536;13.432;2022-12-18T12:56:21;102859.00;;;5.90
21336;BMP180;10826;52.536;13.432;2022-12-18T12:59:22;102879.00;;;5.90
21336;BMP180;10826;52.536;13.432;2022-12-18T13:05:20;102856.00;;;5.90
21336;BMP180;10826;52.536;13.432;2022-12-18T13:08:31;102855.00;;;5.80
21336;BMP180;10826;52.536;13.432;2022-12-18T13:11:00;102843.00;;;5.80
21336;BMP180;10826;52.536;13.432;2022-12-18T13:13:54;102857.00;;;5.80
21336;BMP180;10826;52.536;13.432;2022-12-18T13:16:26;102849.00;;;5.80
21336;BMP180;10826;52.536;13.432;2022-12-18T13:18:57;102868.00;;;5.80
21336;BMP180;10826;52.536;13.432;2022-12-18T13:21:33;102859.00;;;5.90
21336;BMP180;10826;52.536;13.432;2022-12-18T13:24:32;102873.00;;;5.90
21336;BMP180;10826;52.536;13.432;2022-12-18T13:26:58;102861.00;;;5.80
21336;BMP180;10826;52.536;13.432;2022-12-18T13:29:44;102858.00;;;5.80
21336;BMP180;10826;52.536;13.432;2022-12-18T13:32:23;102859.00;;;5.90
21336;BMP180;10826;52.536;13.432;2022-12-18T13:37:56;102852.00;;;5.80
21336;BMP180;10826;52.536;13.432;2022-12-18T13:43:27;102846.00;;;5.80
21336;BMP180;10826;52.536;13.432;2022-12-18T13:46:24;102860.00;;;5.90
21336;BMP180;10826;52.536;13.432;2022-12-18T13:49:20;102812.00;;;5.80
21336;BMP180;10826;52.536;13.432;2022-12-18T13:51:50;102835.00;;;5.80
21336;BMP180;10826;52.536;13.432;2022-12-18T13:54:22;102819.00;;;5.80
21336;BMP180;10826;52.536;13.432;2022-12-18T13:56:50;102806.00;;;5.80
21336;BMP180;10826;52.536;13.432;2022-12-18T13:59:23;102845.00;;;5.80
21336;BMP180;10826;52.536;13.432;2022-12-18T14:01:54;102846.00;;;5.80
21336;BMP180;10826;52.536;13.432;2022-12-18T14:04:30;102839.00;;;5.70
21336;BMP180;10826;52.536;13.432;2022-12-18T14:07:03;102775.00;;;5.80
21336;BMP180;10826;52.536;13.432;2022-12-18T14:09:54;102812.00;;;5.70
21336;BMP180;10826;52.536;13.432;2022-12-18T14:12:28;102823.00;;;5.70
21336;BMP180;10826;52.536;13.432;2022-12-18T14:15:41;102822.00;;;5.70
21336;BMP180;10826;52.536;13.432;2022-12-18T14:18:42;102825.00;;;5.70
21336;BMP180;10826;52.536;13.432;2022-12-18T14:21:49;102826.00;;;5.60
21336;BMP180;10826;52.536;13.432;2022-12-18T14:24:21;102827.00;;;5.70
21336;BMP180;10826;52.536;13.432;2022-12-18T14:26:50;102818.00;;;5.60
21336;BMP180;10826;52.536;13.432;2022-12-18T14:29:28;102809.00;;;5.60
21336;BMP180;10826;52.536;13.432;2022-12-18T14:32:18;102800.00;;;5.60
21336;BMP180;10826;52.536;13.432;2022-12-18T14:34:53;102799.00;;;5.60
21336;BMP180;10826;52.536;13.432;2022-12-18T14:37:25;102784.00;;;5.60
21336;BMP180;10826;52.536;13.432;2022-12-18T14:40:04;102784.00;;;5.60
21336;BMP180;10826;52.536;13.432;2022-12-18T14:42:31;102771.00;;;5.60
21336;BMP180;10826;52.536;13.432;2022-12-18T14:45:39;102777.00;;;5.50
21336;BMP180;10826;52.536;13.432;2022-12-18T14:48:40;102774.00;;;5.50
21336;BMP180;10826;52.536;13.432;2022-12-18T14:51:24;102757.00;;;5.50
21336;BMP180;10826;52.536;13.432;2022-12-18T14:54:05;102758.00;;;5.50
21336;BMP180;10826;52.536;13.432;2022-12-18T14:56:43;102751.00;;;5.40
21336;BMP180;10826;52.536;13.432;2022-12-18T14:59:22;102738.00;;;5.40
21336;BMP180;10826;52.536;13.432;2022-12-18T15:01:58;102765.00;;;5.40
21336;BMP180;10826;52.536;13.432;2022-12-18T15:04:38;102777.00;;;5.40
21336;BMP180;10826;52.536;13.432;2022-12-18T15:07:19;102781.00;;;5.40
21336;BMP180;10826;52.536;13.432;2022-12-18T15:10:13;102786.00;;;5.40
21336;BMP180;10826;52.536;13.432;2022-12-18T15:18:20;102811.00;;;5.40
21336;BMP180;10826;52.536;13.432;2022-12-18T15:20:54;102794.00;;;5.40
21336;BMP180;10826;52.536;13.432;2022-12-18T15:23:36;102803.00;;;5.40
21336;BMP180;10826;52.536;13.432;2022-12-18T15:26:08;102807.00;;;5.40
21336;BMP180;10826;52.536;13.432;2022-12-18T15:33:59;102792.00;;;5.40
21336;BMP180;10826;52.536;13.432;2022-12-18T15:36:26;102807.00;;;5.40
21336;BMP180;10826;52.536;13.432;2022-12-18T15:38:56;102798.00;;;5.40
21336;BMP180;10826;52.536;13.432;2022-12-18T15:41:24;102796.00;;;5.40
21336;BMP180;10826;52.536;13.432;2022-12-18T15:43:52;102815.00;;;5.40
21336;BMP180;10826;52.536;13.432;2022-12-18T15:46:23;102809.00;;;5.50
21336;BMP180;10826;52.536;13.432;2022-12-18T15:48:53;102796.00;;;5.40
21336;BMP180;10826;52.536;13.432;2022-12-18T15:51:39;102813.00;;;5.40